sensor_id;sensor_type;location;lat;lon;timestamp;pressure;altitude;pressure_sealevel;temperature;humidity
64460;BME280;50828;53.756;21.140;2022-12-29T00:00:19;99314.41;;;5.93;73.94
64460;BME280;50828;53.756;21.140;2022-12-29T00:05:27;99318.36;;;5.96;74.02
64460;BME280;50828;53.756;21.140;2022-12-29T00:10:36;99314.27;;;5.98;73.91
64460;BME280;50828;53.756;21.140;2022-12-29T00:15:44;99313.46;;;6.01;73.94
64460;BME280;50828;53.756;21.140;2022-12-29T00:20:57;99311.78;;;6.05;74.02
64460;BME280;50828;53.756;21.140;2022-12-29T00:26:22;99305.41;;;6.07;74.08
64460;BME280;50828;53.756;21.140;2022-12-29T00:31:47;99291.92;;;6.03;73.84
64460;BME280;50828;53.756;21.140;2022-12-29T00:37:14;99304.20;;;6.12;74.03
64460;BME280;50828;53.756;21.140;2022-12-29T00:42:23;99302.94;;;6.13;74.07
64460;BME280;50828;53.756;21.140;2022-12-29T00:47:50;99297.80;;;6.15;73.89
64460;BME280;50828;53.756;21.140;2022-12-29T00:52:58;99293.72;;;6.16;73.92
64460;BME280;50828;53.756;21.140;2022-12-29T00:58:06;99281.21;;;6.19;73.86
64460;BME280;50828;53.756;21.140;2022-12-29T01:03:14;99279.09;;;6.19;73.79
64460;BME280;50828;53.756;21.140;2022-12-29T01:08:22;99279.94;;;6.20;73.68
64460;BME280;50828;53.756;21.140;2022-12-29T01:13:30;99277.11;;;6.21;73.75
64460;BME280;50828;53.756;21.140;2022-12-29T01:18:38;99271.31;;;6.22;73.50
64460;BME280;50828;53.756;21.140;2022-12-29T01:23:46;99263.59;;;6.23;73.64
64460;BME280;50828;53.756;21.140;2022-12-29T01:28:55;99260.94;;;6.24;73.35
64460;BME280;50828;53.756;21.140;2022-12-29T01:34:03;99259.92;;;6.23;73.37
64460;BME280;50828;53.756;21.140;2022-12-29T01:39:12;99258.17;;;6.23;73.27
64460;BME280;50828;53.756;21.140;2022-12-29T01:44:51;99255.75;;;6.22;73.15
64460;BME280;50828;53.756;21.140;2022-12-29T01:50:03;99246.83;;;6.22;73.32
64460;BME280;50828;53.756;21.140;2022-12-29T01:55:09;99245.38;;;6.24;73.31
64460;BME280;50828;53.756;21.140;2022-12-29T02:00:19;99237.35;;;6.23;73.03
64460;BME280;50828;53.756;21.140;2022-12-29T02:05:31;99227.42;;;6.22;73.00
64460;BME280;50828;53.756;21.140;2022-12-29T02:10:43;99224.11;;;6.22;73.04
64460;BME280;50828;53.756;21.140;2022-12-29T02:16:00;99219.41;;;6.22;73.09
64460;BME280;50828;53.756;21.140;2022-12-29T02:21:38;99213.97;;;6.22;73.18
64460;BME280;50828;53.756;21.140;2022-12-29T02:32:39;99208.88;;;6.22;73.14
64460;BME280;50828;53.756;21.140;2022-12-29T02:37:58;99201.04;;;6.22;73.11
64460;BME280;50828;53.756;21.140;2022-12-29T02:43:13;99190.40;;;6.21;73.09
64460;BME280;50828;53.756;21.140;2022-12-29T02:48:28;99190.42;;;6.20;73.04
64460;BME280;50828;53.756;21.140;2022-12-29T02:53:38;99185.27;;;6.18;73.14
64460;BME280;50828;53.756;21.140;2022-12-29T02:59:03;99182.91;;;6.16;72.91
64460;BME280;50828;53.756;21.140;2022-12-29T03:04:25;99178.80;;;6.13;73.04
64460;BME280;50828;53.756;21.140;2022-12-29T03:09:43;99176.95;;;6.11;72.93
64460;BME280;50828;53.756;21.140;2022-12-29T03:15:00;99185.30;;;6.08;73.10
64460;BME280;50828;53.756;21.140;2022-12-29T03:20:35;99188.38;;;6.05;73.26
64460;BME280;50828;53.756;21.140;2022-12-29T03:25:49;99197.23;;;6.01;73.21
64460;BME280;50828;53.756;21.140;2022-12-29T03:31:00;99199.10;;;5.98;73.20
64460;BME280;50828;53.756;21.140;2022-12-29T03:36:15;99196.23;;;5.95;73.30
64460;BME280;50828;53.756;21.140;2022-12-29T03:41:28;99191.30;;;5.90;73.29
64460;BME280;50828;53.756;21.140;2022-12-29T03:46:39;99184.44;;;5.87;73.56
64460;BME280;50828;53.756;21.140;2022-12-29T03:51:48;99182.93;;;5.85;73.65
64460;BME280;50828;53.756;21.140;2022-12-29T03:56:57;99184.08;;;5.82;73.65
64460;BME280;50828;53.756;21.140;2022-12-29T04:02:15;99184.35;;;5.80;73.78
64460;BME280;50828;53.756;21.140;2022-12-29T04:07:24;99169.30;;;5.70;73.58
64460;BME280;50828;53.756;21.140;2022-12-29T04:12:33;99169.66;;;5.75;73.74
64460;BME280;50828;53.756;21.140;2022-12-29T04:17:41;99157.67;;;5.73;73.78
64460;BME280;50828;53.756;21.140;2022-12-29T04:22:51;99158.19;;;5.73;73.91
64460;BME280;50828;53.756;21.140;2022-12-29T04:28:04;99164.52;;;5.72;74.05
64460;BME280;50828;53.756;21.140;2022-12-29T04:33:24;99167.84;;;5.72;73.94
64460;BME280;50828;53.756;21.140;2022-12-29T04:38:33;99161.73;;;5.71;74.32
64460;BME280;50828;53.756;21.140;2022-12-29T04:43:42;99168.54;;;5.72;74.12
64460;BME280;50828;53.756;21.140;2022-12-29T04:49:09;99161.77;;;5.71;74.17
64460;BME280;50828;53.756;21.140;2022-12-29T04:54:29;99161.02;;;5.72;74.25
64460;BME280;50828;53.756;21.140;2022-12-29T04:59:46;99155.13;;;5.71;74.31
64460;BME280;50828;53.756;21.140;2022-12-29T05:04:57;99159.20;;;5.69;74.21
64460;BME280;50828;53.756;21.140;2022-12-29T05:10:07;99143.98;;;5.69;74.05
64460;BME280;50828;53.756;21.140;2022-12-29T05:15:15;99143.81;;;5.69;74.16
64460;BME280;50828;53.756;21.140;2022-12-29T05:20:23;99139.44;;;5.70;74.17
64460;BME280;50828;53.756;21.140;2022-12-29T05:25:32;99131.44;;;5.69;74.19
64460;BME280;50828;53.756;21.140;2022-12-29T05:30:58;99133.52;;;5.69;74.11
64460;BME280;50828;53.756;21.140;2022-12-29T05:36:09;99132.44;;;5.70;74.08
64460;BME280;50828;53.756;21.140;2022-12-29T05:41:21;99137.88;;;5.69;74.03
64460;BME280;50828;53.756;21.140;2022-12-29T05:47:05;99139.96;;;5.70;74.15
64460;BME280;50828;53.756;21.140;2022-12-29T05:52:23;99134.02;;;5.70;74.17
64460;BME280;50828;53.756;21.140;2022-12-29T05:57:32;99139.13;;;5.69;74.13
64460;BME280;50828;53.756;21.140;2022-12-29T06:02:52;99137.91;;;5.69;74.08
64460;BME280;50828;53.756;21.140;2022-12-29T06:08:00;99124.79;;;5.69;73.99
64460;BME280;50828;53.756;21.140;2022-12-29T06:13:09;99113.16;;;5.67;74.02
64460;BME280;50828;53.756;21.140;2022-12-29T06:18:19;99114.38;;;5.67;74.03
64460;BME280;50828;53.756;21.140;2022-12-29T06:23:27;99118.91;;;5.67;74.17
64460;BME280;50828;53.756;21.140;2022-12-29T06:28:37;99122.77;;;5.67;74.12
64460;BME280;50828;53.756;21.140;2022-12-29T06:33:45;99119.46;;;5.66;74.03
64460;BME280;50828;53.756;21.140;2022-12-29T06:38:56;99117.34;;;5.67;73.95
64460;BME280;50828;53.756;21.140;2022-12-29T06:44:04;99115.77;;;5.67;73.83
64460;BME280;50828;53.756;21.140;2022-12-29T06:49:28;99121.00;;;5.67;73.82
64460;BME280;50828;53.756;21.140;2022-12-29T06:54:36;99121.02;;;5.67;73.77
64460;BME280;50828;53.756;21.140;2022-12-29T06:59:44;99114.94;;;5.66;73.90
64460;BME280;50828;53.756;21.140;2022-12-29T07:04:51;99108.47;;;5.66;73.70
64460;BME280;50828;53.756;21.140;2022-12-29T07:09:59;99098.36;;;5.66;73.68
64460;BME280;50828;53.756;21.140;2022-12-29T07:15:09;99105.01;;;5.65;73.76
64460;BME280;50828;53.756;21.140;2022-12-29T07:20:19;99095.67;;;5.58;73.94
64460;BME280;50828;53.756;21.140;2022-12-29T07:25:32;99100.83;;;5.65;73.73
64460;BME280;50828;53.756;21.140;2022-12-29T07:30:41;99093.33;;;5.65;73.70
64460;BME280;50828;53.756;21.140;2022-12-29T07:35:49;99094.05;;;5.64;73.71
64460;BME280;50828;53.756;21.140;2022-12-29T07:41:00;99083.93;;;5.64;73.62
64460;BME280;50828;53.756;21.140;2022-12-29T07:46:08;99094.06;;;5.64;73.62
64460;BME280;50828;53.756;21.140;2022-12-29T07:51:37;99093.59;;;5.63;73.60
64460;BME280;50828;53.756;21.140;2022-12-29T07:56:46;99090.80;;;5.62;73.60
64460;BME280;50828;53.756;21.140;2022-12-29T08:01:55;99084.35;;;5.62;73.58
64460;BME280;50828;53.756;21.140;2022-12-29T08:07:03;99082.60;;;5.62;73.71
64460;BME280;50828;53.756;21.140;2022-12-29T08:12:12;99092.67;;;5.63;73.50
64460;BME280;50828;53.756;21.140;2022-12-29T08:17:21;99101.55;;;5.64;73.78
64460;BME280;50828;53.756;21.140;2022-12-29T08:22:29;99092.98;;;5.65;73.65
64460;BME280;50828;53.756;21.140;2022-12-29T08:27:38;99088.92;;;5.66;73.46
64460;BME280;50828;53.756;21.140;2022-12-29T08:32:46;99077.70;;;5.67;73.68
64460;BME280;50828;53.756;21.140;2022-12-29T08:37:55;99081.66;;;5.68;73.59
64460;BME280;50828;53.756;21.140;2022-12-29T08:43:04;99088.79;;;5.70;73.49
64460;BME280;50828;53.756;21.140;2022-12-29T08:48:15;99086.66;;;5.70;73.46
64460;BME280;50828;53.756;21.140;2022-12-29T08:53:23;99100.38;;;5.73;73.57
64460;BME280;50828;53.756;21.140;2022-12-29T08:58:32;99103.98;;;5.75;73.72
64460;BME280;50828;53.756;21.140;2022-12-29T09:03:41;99103.58;;;5.76;73.70
64460;BME280;50828;53.756;21.140;2022-12-29T09:09:10;99095.70;;;5.77;73.38
64460;BME280;50828;53.756;21.140;2022-12-29T09:14:18;99097.23;;;5.78;73.59
64460;BME280;50828;53.756;21.140;2022-12-29T09:19:28;99088.64;;;5.79;73.32
64460;BME280;50828;53.756;21.140;2022-12-29T09:24:36;99083.30;;;5.81;73.42
64460;BME280;50828;53.756;21.140;2022-12-29T09:29:44;99079.77;;;5.82;73.49
64460;BME280;50828;53.756;21.140;2022-12-29T09:34:52;99072.93;;;5.83;73.39
64460;BME280;50828;53.756;21.140;2022-12-29T09:40:01;99071.98;;;5.85;73.38
64460;BME280;50828;53.756;21.140;2022-12-29T09:45:14;99066.10;;;5.88;73.45
64460;BME280;50828;53.756;21.140;2022-12-29T09:50:26;99064.08;;;5.91;73.32
64460;BME280;50828;53.756;21.140;2022-12-29T09:55:39;99051.70;;;5.94;73.20
64460;BME280;50828;53.756;21.140;2022-12-29T10:00:52;99060.30;;;5.99;73.45
64460;BME280;50828;53.756;21.140;2022-12-29T10:06:10;99051.63;;;6.02;73.30
64460;BME280;50828;53.756;21.140;2022-12-29T10:11:29;99046.09;;;6.05;73.31
64460;BME280;50828;53.756;21.140;2022-12-29T10:16:47;99044.16;;;6.10;72.94
64460;BME280;50828;53.756;21.140;2022-12-29T10:22:07;99050.14;;;6.13;73.00
64460;BME280;50828;53.756;21.140;2022-12-29T10:27:18;99050.35;;;6.17;73.10
64460;BME280;50828;53.756;21.140;2022-12-29T10:32:34;99036.61;;;6.19;72.97
64460;BME280;50828;53.756;21.140;2022-12-29T10:37:45;99036.48;;;6.23;72.89
64460;BME280;50828;53.756;21.140;2022-12-29T10:43:12;99038.11;;;6.26;72.57
64460;BME280;50828;53.756;21.140;2022-12-29T10:48:30;99030.97;;;6.30;72.93
64460;BME280;50828;53.756;21.140;2022-12-29T10:53:41;99017.11;;;6.35;72.91
64460;BME280;50828;53.756;21.140;2022-12-29T10:58:53;99012.00;;;6.40;72.80
64460;BME280;50828;53.756;21.140;2022-12-29T11:04:05;99005.30;;;6.46;72.65
64460;BME280;50828;53.756;21.140;2022-12-29T11:09:18;98999.34;;;6.51;72.58
64460;BME280;50828;53.756;21.140;2022-12-29T11:14:47;98977.55;;;6.57;72.54
64460;BME280;50828;53.756;21.140;2022-12-29T11:20:27;98972.94;;;6.63;72.81
64460;BME280;50828;53.756;21.140;2022-12-29T11:25:35;98986.33;;;6.69;72.56
64460;BME280;50828;53.756;21.140;2022-12-29T11:30:44;98986.15;;;6.73;72.41
64460;BME280;50828;53.756;21.140;2022-12-29T11:35:56;98976.71;;;6.77;72.18
64460;BME280;50828;53.756;21.140;2022-12-29T11:41:06;98978.99;;;6.81;72.33
64460;BME280;50828;53.756;21.140;2022-12-29T11:46:21;98980.56;;;6.85;72.20
64460;BME280;50828;53.756;21.140;2022-12-29T11:51:33;98983.18;;;6.89;72.21
64460;BME280;50828;53.756;21.140;2022-12-29T11:56:45;98975.17;;;6.93;71.94
64460;BME280;50828;53.756;21.140;2022-12-29T12:01:54;98974.89;;;6.95;72.15
64460;BME280;50828;53.756;21.140;2022-12-29T12:07:09;98956.81;;;6.91;71.95
64460;BME280;50828;53.756;21.140;2022-12-29T12:12:24;98955.01;;;7.01;71.77
64460;BME280;50828;53.756;21.140;2022-12-29T12:17:40;98948.38;;;7.05;71.72
64460;BME280;50828;53.756;21.140;2022-12-29T12:23:01;98939.40;;;7.10;71.81
64460;BME280;50828;53.756;21.140;2022-12-29T12:28:19;98944.79;;;7.15;71.59
64460;BME280;50828;53.756;21.140;2022-12-29T12:33:30;98951.20;;;7.20;71.40
64460;BME280;50828;53.756;21.140;2022-12-29T12:38:48;98948.39;;;7.24;71.28
64460;BME280;50828;53.756;21.140;2022-12-29T12:44:04;98953.60;;;7.29;71.19
64460;BME280;50828;53.756;21.140;2022-12-29T12:55:37;98947.90;;;7.35;70.51
64460;BME280;50828;53.756;21.140;2022-12-29T13:00:55;98935.12;;;7.39;70.38
64460;BME280;50828;53.756;21.140;2022-12-29T13:06:18;98932.16;;;7.42;70.23
64460;BME280;50828;53.756;21.140;2022-12-29T13:11:37;98934.85;;;7.45;70.36
64460;BME280;50828;53.756;21.140;2022-12-29T13:16:53;98939.76;;;7.48;70.14
64460;BME280;50828;53.756;21.140;2022-12-29T13:22:14;98940.66;;;7.51;69.96
64460;BME280;50828;53.756;21.140;2022-12-29T13:27:32;98939.30;;;7.55;70.19
64460;BME280;50828;53.756;21.140;2022-12-29T13:32:55;98934.59;;;7.58;69.73
64460;BME280;50828;53.756;21.140;2022-12-29T13:38:09;98933.98;;;7.64;69.78
64460;BME280;50828;53.756;21.140;2022-12-29T13:43:19;98927.49;;;7.67;69.82
64460;BME280;50828;53.756;21.140;2022-12-29T13:48:38;98951.80;;;7.72;69.96
64460;BME280;50828;53.756;21.140;2022-12-29T13:53:59;98960.11;;;7.75;69.60
64460;BME280;50828;53.756;21.140;2022-12-29T13:59:14;98961.39;;;7.77;69.32
64460;BME280;50828;53.756;21.140;2022-12-29T14:04:29;98964.63;;;7.79;69.26
64460;BME280;50828;53.756;21.140;2022-12-29T14:09:48;98958.73;;;7.81;69.42
64460;BME280;50828;53.756;21.140;2022-12-29T14:15:05;98955.63;;;7.84;69.27
64460;BME280;50828;53.756;21.140;2022-12-29T14:20:24;98954.68;;;7.85;69.40
64460;BME280;50828;53.756;21.140;2022-12-29T14:25:56;98960.02;;;7.88;69.15
64460;BME280;50828;53.756;21.140;2022-12-29T14:31:19;98965.02;;;7.89;68.86
64460;BME280;50828;53.756;21.140;2022-12-29T14:36:37;98962.34;;;7.90;69.04
64460;BME280;50828;53.756;21.140;2022-12-29T14:41:46;98963.49;;;7.92;68.91
64460;BME280;50828;53.756;21.140;2022-12-29T14:47:00;98963.76;;;7.94;68.84
64460;BME280;50828;53.756;21.140;2022-12-29T14:52:17;98962.64;;;7.95;68.62
64460;BME280;50828;53.756;21.140;2022-12-29T14:57:35;98966.45;;;7.97;68.52
64460;BME280;50828;53.756;21.140;2022-12-29T15:02:48;98977.45;;;7.97;68.28
64460;BME280;50828;53.756;21.140;2022-12-29T15:07:58;98976.74;;;7.98;68.53
64460;BME280;50828;53.756;21.140;2022-12-29T15:13:17;98970.45;;;7.97;68.21
64460;BME280;50828;53.756;21.140;2022-12-29T15:18:30;98978.34;;;7.97;68.11
64460;BME280;50828;53.756;21.140;2022-12-29T15:23:38;98980.13;;;7.96;68.07
64460;BME280;50828;53.756;21.140;2022-12-29T15:28:47;98982.40;;;7.97;68.02
64460;BME280;50828;53.756;21.140;2022-12-29T15:34:08;98979.23;;;7.97;67.85
64460;BME280;50828;53.756;21.140;2022-12-29T15:39:26;98976.80;;;7.96;67.64
64460;BME280;50828;53.756;21.140;2022-12-29T15:44:38;98974.16;;;7.96;67.64
64460;BME280;50828;53.756;21.140;2022-12-29T15:49:49;98968.52;;;7.97;67.73
64460;BME280;50828;53.756;21.140;2022-12-29T15:54:59;98960.27;;;7.98;67.68
64460;BME280;50828;53.756;21.140;2022-12-29T16:00:23;98962.16;;;7.98;67.69
64460;BME280;50828;53.756;21.140;2022-12-29T16:05:36;98968.38;;;8.00;67.64
64460;BME280;50828;53.756;21.140;2022-12-29T16:10:43;98968.20;;;8.00;67.35
64460;BME280;50828;53.756;21.140;2022-12-29T16:15:55;98973.60;;;8.01;67.15
64460;BME280;50828;53.756;21.140;2022-12-29T16:21:05;98971.84;;;8.01;67.06
64460;BME280;50828;53.756;21.140;2022-12-29T16:26:17;98972.81;;;8.02;67.14
64460;BME280;50828;53.756;21.140;2022-12-29T16:31:34;98971.50;;;8.04;67.06
64460;BME280;50828;53.756;21.140;2022-12-29T16:36:55;98967.20;;;8.06;67.07
64460;BME280;50828;53.756;21.140;2022-12-29T16:48:16;98970.36;;;8.09;66.94
64460;BME280;50828;53.756;21.140;2022-12-29T16:53:26;98968.56;;;8.11;66.74
64460;BME280;50828;53.756;21.140;2022-12-29T16:58:35;98971.14;;;8.12;66.82
64460;BME280;50828;53.756;21.140;2022-12-29T17:03:45;98977.91;;;8.13;66.74
64460;BME280;50828;53.756;21.140;2022-12-29T17:08:56;98978.71;;;8.15;66.66
64460;BME280;50828;53.756;21.140;2022-12-29T17:14:07;98975.13;;;8.17;66.48
64460;BME280;50828;53.756;21.140;2022-12-29T17:19:26;98967.14;;;8.18;66.42
64460;BME280;50828;53.756;21.140;2022-12-29T17:24:36;98961.13;;;8.19;66.24
64460;BME280;50828;53.756;21.140;2022-12-29T17:29:45;98968.61;;;8.20;66.19
64460;BME280;50828;53.756;21.140;2022-12-29T17:34:53;98965.51;;;8.19;66.13
64460;BME280;50828;53.756;21.140;2022-12-29T17:40:02;98960.83;;;8.18;66.13
64460;BME280;50828;53.756;21.140;2022-12-29T17:45:14;98963.37;;;8.16;65.87
64460;BME280;50828;53.756;21.140;2022-12-29T17:50:25;98962.09;;;8.14;65.97
64460;BME280;50828;53.756;21.140;2022-12-29T17:55:35;98965.64;;;8.13;66.19
64460;BME280;50828;53.756;21.140;2022-12-29T18:00:44;98965.34;;;8.12;65.98
64460;BME280;50828;53.756;21.140;2022-12-29T18:05:52;98961.82;;;8.12;66.02
64460;BME280;50828;53.756;21.140;2022-12-29T18:11:01;98966.38;;;8.12;65.78
64460;BME280;50828;53.756;21.140;2022-12-29T18:16:11;98982.83;;;8.13;65.82
64460;BME280;50828;53.756;21.140;2022-12-29T18:21:21;98987.52;;;8.14;65.89
64460;BME280;50828;53.756;21.140;2022-12-29T18:26:30;98979.09;;;8.14;65.75
64460;BME280;50828;53.756;21.140;2022-12-29T18:31:40;98977.06;;;8.16;65.59
64460;BME280;50828;53.756;21.140;2022-12-29T18:36:49;98972.92;;;8.18;65.60
64460;BME280;50828;53.756;21.140;2022-12-29T18:41:58;98973.06;;;8.19;65.46
64460;BME280;50828;53.756;21.140;2022-12-29T18:47:06;98977.64;;;8.22;65.44
64460;BME280;50828;53.756;21.140;2022-12-29T18:52:16;98978.05;;;8.25;65.28
64460;BME280;50828;53.756;21.140;2022-12-29T18:57:24;98984.27;;;8.26;65.75
64460;BME280;50828;53.756;21.140;2022-12-29T19:02:35;98982.08;;;8.28;65.46
64460;BME280;50828;53.756;21.140;2022-12-29T19:07:44;98976.15;;;8.32;65.44
64460;BME280;50828;53.756;21.140;2022-12-29T19:12:53;98978.67;;;8.34;65.49
64460;BME280;50828;53.756;21.140;2022-12-29T19:18:04;98988.08;;;8.35;65.56
64460;BME280;50828;53.756;21.140;2022-12-29T19:23:33;98991.16;;;8.37;65.23
64460;BME280;50828;53.756;21.140;2022-12-29T19:28:41;98990.35;;;8.39;65.27
64460;BME280;50828;53.756;21.140;2022-12-29T19:33:50;98998.52;;;8.40;65.25
64460;BME280;50828;53.756;21.140;2022-12-29T19:38:59;99000.77;;;8.41;65.34
64460;BME280;50828;53.756;21.140;2022-12-29T19:44:08;99002.13;;;8.42;65.50
64460;BME280;50828;53.756;21.140;2022-12-29T19:49:16;99006.41;;;8.40;65.70
64460;BME280;50828;53.756;21.140;2022-12-29T19:54:25;99004.49;;;8.40;65.44
64460;BME280;50828;53.756;21.140;2022-12-29T19:59:33;99011.02;;;8.40;65.48
64460;BME280;50828;53.756;21.140;2022-12-29T20:04:42;99014.53;;;8.39;65.47
64460;BME280;50828;53.756;21.140;2022-12-29T20:09:51;99010.48;;;8.36;65.58
64460;BME280;50828;53.756;21.140;2022-12-29T20:14:59;99009.46;;;8.35;65.59
64460;BME280;50828;53.756;21.140;2022-12-29T20:20:09;99004.95;;;8.35;65.77
64460;BME280;50828;53.756;21.140;2022-12-29T20:25:19;98994.81;;;8.34;66.09
64460;BME280;50828;53.756;21.140;2022-12-29T20:30:55;98991.70;;;8.33;66.50
64460;BME280;50828;53.756;21.140;2022-12-29T20:36:08;99002.91;;;8.33;66.75
64460;BME280;50828;53.756;21.140;2022-12-29T20:41:17;99009.30;;;8.32;66.77
64460;BME280;50828;53.756;21.140;2022-12-29T20:46:26;99006.77;;;8.29;67.02
64460;BME280;50828;53.756;21.140;2022-12-29T20:51:47;99001.42;;;8.27;67.17
64460;BME280;50828;53.756;21.140;2022-12-29T20:57:12;99000.70;;;8.24;67.04
64460;BME280;50828;53.756;21.140;2022-12-29T21:02:22;99009.48;;;8.20;67.20
64460;BME280;50828;53.756;21.140;2022-12-29T21:07:30;99019.48;;;8.17;67.25
64460;BME280;50828;53.756;21.140;2022-12-29T21:12:38;99021.19;;;8.14;67.54
64460;BME280;50828;53.756;21.140;2022-12-29T21:17:46;99028.61;;;8.13;67.46
64460;BME280;50828;53.756;21.140;2022-12-29T21:22:54;99023.88;;;8.13;67.65
64460;BME280;50828;53.756;21.140;2022-12-29T21:28:03;99032.86;;;8.12;67.50
64460;BME280;50828;53.756;21.140;2022-12-29T21:33:13;99024.70;;;8.10;67.29
64460;BME280;50828;53.756;21.140;2022-12-29T21:38:21;99025.61;;;8.09;67.14
64460;BME280;50828;53.756;21.140;2022-12-29T21:43:29;99032.75;;;8.07;67.34
64460;BME280;50828;53.756;21.140;2022-12-29T21:48:37;99030.31;;;8.03;67.08
64460;BME280;50828;53.756;21.140;2022-12-29T21:53:45;99036.49;;;7.98;67.02
64460;BME280;50828;53.756;21.140;2022-12-29T21:58:53;99043.59;;;7.93;67.02
64460;BME280;50828;53.756;21.140;2022-12-29T22:04:21;99047.61;;;7.85;67.05
64460;BME280;50828;53.756;21.140;2022-12-29T22:09:47;99041.98;;;7.78;66.81
64460;BME280;50828;53.756;21.140;2022-12-29T22:15:14;99040.70;;;7.71;66.70
64460;BME280;50828;53.756;21.140;2022-12-29T22:20:24;99046.99;;;7.64;66.92
64460;BME280;50828;53.756;21.140;2022-12-29T22:25:33;99052.83;;;7.59;66.82
64460;BME280;50828;53.756;21.140;2022-12-29T22:30:42;99043.98;;;7.52;66.92
64460;BME280;50828;53.756;21.140;2022-12-29T22:35:50;99041.16;;;7.49;66.87
64460;BME280;50828;53.756;21.140;2022-12-29T22:41:00;99046.33;;;7.47;66.97
64460;BME280;50828;53.756;21.140;2022-12-29T22:46:07;99039.80;;;7.44;67.13
64460;BME280;50828;53.756;21.140;2022-12-29T22:51:16;99042.89;;;7.42;67.20
64460;BME280;50828;53.756;21.140;2022-12-29T22:56:24;99049.29;;;7.40;67.14
64460;BME280;50828;53.756;21.140;2022-12-29T23:01:32;99055.98;;;7.39;67.07
64460;BME280;50828;53.756;21.140;2022-12-29T23:06:40;99052.19;;;7.38;67.18
64460;BME280;50828;53.756;21.140;2022-12-29T23:11:49;99055.92;;;7.36;67.13
64460;BME280;50828;53.756;21.140;2022-12-29T23:16:57;99061.71;;;7.36;67.29
64460;BME280;50828;53.756;21.140;2022-12-29T23:22:05;99069.69;;;7.38;67.37
64460;BME280;50828;53.756;21.140;2022-12-29T23:27:15;99077.54;;;7.39;67.40
64460;BME280;50828;53.756;21.140;2022-12-29T23:32:23;99079.23;;;7.40;67.48
64460;BME280;50828;53.756;21.140;2022-12-29T23:37:32;99086.48;;;7.42;67.54
64460;BME280;50828;53.756;21.140;2022-12-29T23:42:40;99089.36;;;7.45;67.39
64460;BME280;50828;53.756;21.140;2022-12-29T23:47:48;99088.41;;;7.46;67.55
64460;BME280;50828;53.756;21.140;2022-12-29T23:52:56;99087.46;;;7.48;67.34
64460;BME280;50828;53.756;21.140;2022-12-29T23:58:05;99090.94;;;7.49;67.15
